Time;durP1;ratioP1;P1;durP2;ratioP2;P2;SDS_P1;SDS_P2;PMS_P1;PMS_P2;Temp;Humidity;BMP_temperature;BMP_pressure;BME280_temperature;BME280_humidity;BME280_pressure;Samples;Min_cycle;Max_cycle;Signal;HPM_P1;HPM_P2
2023/09/27 07:14:31;;;;;;;22.15;8.38;;;;;;;20.28;68.95;101344.19;5495407;31;34079;-56
2023/09/27 07:17:34;;;;;;;55.38;9.70;;;;;;;20.39;68.40;101334.56;5550099;32;20072;-58
2023/09/27 07:20:36;;;;;;;11.73;7.80;;;;;;;20.56;81.29;101343.84;5546718;32;33230;-57
2023/09/27 07:23:39;;;;;;;15.18;7.25;;;;;;;20.58;71.58;101347.06;5541109;32;33405;-57
2023/09/27 07:26:43;;;;;;;15.70;7.65;;;;;;;20.69;75.29;101348.28;5546644;32;33715;-55
2023/09/27 07:29:48;;;;;;;16.55;8.07;;;;;;;20.63;68.11;101349.63;5548328;32;33372;-56
2023/09/27 07:32:51;;;;;;;20.00;8.40;;;;;;;20.72;65.31;101350.38;5548073;32;33358;-57
2023/09/27 07:35:55;;;;;;;17.65;8.60;;;;;;;20.78;70.28;101346.34;5532926;32;33790;-56
2023/09/27 07:38:57;;;;;;;19.15;8.25;;;;;;;20.80;68.14;101346.84;5552790;32;33690;-57
2023/09/27 07:42:00;;;;;;;12.05;8.02;;;;;;;20.76;68.90;101354.06;5547254;32;33636;-56
2023/09/27 07:45:04;;;;;;;15.25;8.63;;;;;;;20.72;69.48;101350.38;5546419;32;33577;-57
2023/09/27 07:48:07;;;;;;;14.07;8.38;;;;;;;20.75;66.82;101346.19;5546735;32;34245;-58
2023/09/27 07:51:15;;;;;;;17.17;8.52;;;;;;;20.76;65.60;101354.06;5546876;32;34412;-57
2023/09/27 07:54:18;;;;;;;12.85;8.18;;;;;;;20.84;66.92;101357.88;5554034;32;34351;-56
2023/09/27 07:57:20;;;;;;;18.02;8.13;;;;;;;20.85;65.30;101357.53;5546590;32;33663;-57
2023/09/27 08:00:28;;;;;;;29.05;9.25;;;;;;;21.00;67.40;101356.22;5540812;32;33938;-56
2023/09/27 08:03:31;;;;;;;16.45;8.32;;;;;;;21.00;69.41;101360.88;5547280;32;33747;-56
2023/09/27 08:06:34;;;;;;;24.58;9.35;;;;;;;20.98;67.06;101363.91;5545867;32;34385;-57
2023/09/27 08:09:38;;;;;;;16.90;8.32;;;;;;;21.03;67.13;101357.50;5546796;32;33540;-56
2023/09/27 08:12:43;;;;;;;15.02;8.77;;;;;;;21.08;70.71;101358.09;5545623;32;33991;-56
2023/09/27 08:15:49;;;;;;;21.85;9.32;;;;;;;21.11;67.46;101360.16;5533307;32;33685;-56
2023/09/27 08:18:51;;;;;;;17.23;8.52;;;;;;;21.11;64.37;101362.09;5545127;32;33755;-56
2023/09/27 08:21:56;;;;;;;17.12;8.35;;;;;;;21.05;65.91;101360.69;5546681;32;34294;-57
2023/09/27 08:24:59;;;;;;;19.52;8.95;;;;;;;21.17;66.90;101360.00;5545876;32;33768;-55
2023/09/27 08:28:02;;;;;;;14.70;8.60;;;;;;;21.16;67.42;101358.38;5557169;32;33954;-56
2023/09/27 08:31:04;;;;;;;18.00;8.35;;;;;;;21.25;68.25;101362.66;5545866;32;34069;-56
2023/09/27 08:34:07;;;;;;;19.10;8.85;;;;;;;21.32;68.91;101359.44;5546127;32;33256;-56
2023/09/27 08:37:11;;;;;;;11.10;8.25;;;;;;;21.32;66.73;101352.06;5545267;32;34260;-57
2023/09/27 08:40:15;;;;;;;11.80;7.97;;;;;;;21.37;65.74;101358.50;5545822;32;33375;-56
2023/09/27 08:43:20;;;;;;;11.40;8.55;;;;;;;21.44;66.83;101351.38;5548094;32;33928;-56
2023/09/27 08:46:24;;;;;;;11.87;8.17;;;;;;;21.51;69.60;101351.66;5532296;32;33550;-56
2023/09/27 08:49:27;;;;;;;20.70;8.50;;;;;;;21.53;65.36;101356.78;5547404;32;34014;-56
2023/09/27 08:52:30;;;;;;;13.57;8.50;;;;;;;21.61;62.11;101363.31;5556237;32;33617;-56
2023/09/27 08:55:32;;;;;;;20.37;8.45;;;;;;;21.61;62.92;101361.38;5548856;32;33788;-56
2023/09/27 08:58:36;;;;;;;15.00;7.82;;;;;;;21.63;63.95;101361.06;5561476;32;33682;-57
2023/09/27 09:01:43;;;;;;;16.08;8.13;;;;;;;21.66;64.75;101354.94;5553185;32;33616;-57
2023/09/27 09:04:46;;;;;;;15.10;7.70;;;;;;;21.74;65.73;101359.53;5548975;32;33617;-56
2023/09/27 09:07:49;;;;;;;10.50;7.78;;;;;;;21.72;64.40;101354.41;5549059;32;34890;-57
2023/09/27 09:10:53;;;;;;;10.75;7.75;;;;;;;21.89;61.27;101350.75;5558494;32;33704;-57
2023/09/27 09:14:05;;;;;;;14.73;8.02;;;;;;;21.87;64.27;101344.03;5548953;32;33322;-56
2023/09/27 09:17:09;;;;;;;15.18;7.97;;;;;;;21.85;63.33;101341.63;5554892;32;33451;-57
2023/09/27 09:20:23;;;;;;;19.70;8.25;;;;;;;21.93;65.97;101338.03;5547963;32;33721;-56
2023/09/27 09:23:31;;;;;;;22.42;7.50;;;;;;;21.96;66.20;101336.56;5548760;32;33780;-56
2023/09/27 09:26:33;;;;;;;16.73;7.62;;;;;;;22.00;62.88;101335.56;5548542;32;34343;-56
2023/09/27 09:29:47;;;;;;;14.63;8.57;;;;;;;21.98;63.23;101337.81;5552312;32;33681;-56
2023/09/27 09:32:50;;;;;;;15.35;7.70;;;;;;;22.08;61.23;101333.88;5526072;32;33942;-57
2023/09/27 09:35:53;;;;;;;15.80;8.20;;;;;;;22.21;61.06;101334.75;5553100;31;33595;-57
2023/09/27 09:39:14;;;;;;;12.43;8.02;;;;;;;22.29;61.90;101339.38;5557087;32;33546;-57
2023/09/27 09:42:32;;;;;;;15.48;8.02;;;;;;;22.36;59.63;101342.34;5567199;32;34023;-56
2023/09/27 09:45:42;;;;;;;19.75;8.25;;;;;;;22.30;60.20;101335.47;5556613;32;34896;-56
2023/09/27 09:48:45;;;;;;;11.68;6.72;;;;;;;22.43;59.04;101330.88;5548169;32;34485;-57
2023/09/27 09:51:49;;;;;;;14.87;7.57;;;;;;;22.44;59.23;101327.78;5551332;32;33734;-57
2023/09/27 09:54:57;;;;;;;15.85;6.87;;;;;;;22.52;58.81;101332.37;5560377;32;33311;-56
2023/09/27 09:58:34;;;;;;;19.37;7.70;;;;;;;22.59;57.32;101322.81;5561465;32;34415;-57
2023/09/27 10:01:38;;;;;;;17.95;7.30;;;;;;;22.55;57.05;101321.87;5547871;32;34000;-57
2023/09/27 10:04:42;;;;;;;10.45;6.80;;;;;;;22.67;55.24;101314.50;5547854;32;33287;-57
2023/09/27 10:07:45;;;;;;;14.23;6.85;;;;;;;22.65;57.28;101321.44;5557433;32;33365;-57
2023/09/27 10:10:49;;;;;;;10.05;6.90;;;;;;;22.62;57.54;101322.94;5563724;32;33692;-57
2023/09/27 10:13:53;;;;;;;15.55;7.12;;;;;;;22.65;55.17;101315.97;5564340;32;34275;-57
2023/09/27 10:16:56;;;;;;;15.35;8.30;;;;;;;22.79;55.22;101313.75;5552804;32;34554;-58
2023/09/27 10:20:11;;;;;;;13.23;6.80;;;;;;;22.87;56.07;101307.34;5547544;32;33744;-58
2023/09/27 10:23:14;;;;;;;16.37;6.72;;;;;;;22.92;59.57;101309.88;5558687;32;34453;-59
2023/09/27 10:26:34;;;;;;;23.23;7.10;;;;;;;22.91;54.72;101302.81;5559277;32;33894;-58
2023/09/27 10:30:00;;;;;;;11.23;6.72;;;;;;;22.97;57.30;101303.41;5559924;32;33625;-59
2023/09/27 10:33:15;;;;;;;12.40;7.10;;;;;;;23.04;55.83;101297.38;5547796;32;33336;-59
2023/09/27 10:36:18;;;;;;;14.43;7.40;;;;;;;23.04;55.00;101294.63;5555560;31;34304;-59
2023/09/27 10:39:21;;;;;;;13.65;6.90;;;;;;;23.06;55.39;101293.16;5553984;32;34388;-59
2023/09/27 10:42:42;;;;;;;13.98;6.75;;;;;;;23.07;53.83;101291.22;5547055;32;34180;-59
2023/09/27 10:45:58;;;;;;;12.37;7.20;;;;;;;23.26;53.65;101280.47;5546535;32;33705;-58
2023/09/27 10:49:04;;;;;;;13.32;6.97;;;;;;;23.29;53.47;101285.25;5547459;32;33516;-58
2023/09/27 10:52:18;;;;;;;;;;;;;;;23.29;53.47;101277.06;5547612;32;34376;-58
2023/09/27 10:55:20;;;;;;;13.38;6.70;;;;;;;23.37;54.00;101275.31;5549215;32;35205;-59
2023/09/27 10:58:22;;;;;;;9.90;6.45;;;;;;;23.34;53.28;101274.06;5548956;32;33849;-58
2023/09/27 11:01:25;;;;;;;12.30;6.35;;;;;;;23.40;53.70;101272.69;5553697;32;33724;-58
2023/09/27 11:04:29;;;;;;;15.43;7.20;;;;;;;23.37;53.90;101267.91;5552569;32;33620;-58
2023/09/27 11:07:45;;;;;;;11.38;6.72;;;;;;;23.35;51.09;101255.75;5545599;32;34012;-59
2023/09/27 11:10:52;;;;;;;13.10;6.68;;;;;;;23.40;51.13;101245.34;5551418;32;33198;-58
2023/09/27 11:13:55;;;;;;;16.83;6.70;;;;;;;23.48;51.65;101248.28;5557165;32;33979;-59
2023/09/27 11:17:16;;;;;;;17.83;7.10;;;;;;;23.52;51.14;101250.00;5543261;32;33661;-58
2023/09/27 11:20:20;;;;;;;17.52;8.10;;;;;;;23.59;51.24;101233.75;5541418;32;33866;-59
2023/09/27 11:23:24;;;;;;;15.98;6.37;;;;;;;23.57;50.60;101240.72;5547681;32;34315;-59
2023/09/27 11:26:30;;;;;;;11.55;6.43;;;;;;;23.68;51.56;101236.41;5546626;32;34755;-56
2023/09/27 11:29:32;;;;;;;13.23;6.25;;;;;;;23.64;51.99;101238.19;5556078;32;33620;-57
2023/09/27 11:32:51;;;;;;;10.50;6.03;;;;;;;23.82;48.79;101231.31;5555314;32;33645;-56
2023/09/27 11:35:54;;;;;;;10.43;6.55;;;;;;;23.75;48.31;101222.91;5548180;32;34272;-56
2023/09/27 11:38:56;;;;;;;16.73;7.03;;;;;;;23.81;48.31;101221.50;5544282;32;33335;-56
2023/09/27 11:41:59;;;;;;;16.48;7.20;;;;;;;23.84;49.88;101220.00;5543666;32;34255;-56
2023/09/27 11:45:05;;;;;;;13.55;6.30;;;;;;;23.83;50.72;101215.66;5536766;32;33705;-56
2023/09/27 11:48:07;;;;;;;16.35;6.90;;;;;;;23.92;49.70;101213.56;5537265;32;34345;-56
2023/09/27 11:51:11;;;;;;;16.23;6.25;;;;;;;23.98;50.46;101220.41;5547621;32;33455;-56
2023/09/27 11:54:15;;;;;;;10.95;7.15;;;;;;;24.05;51.46;101217.03;5546796;32;34233;-56
2023/09/27 11:57:17;;;;;;;12.10;6.28;;;;;;;24.14;48.87;101209.47;5547401;32;33777;-56
2023/09/27 12:00:19;;;;;;;11.15;6.45;;;;;;;24.10;50.35;101212.09;5540850;32;33656;-57
2023/09/27 12:03:22;;;;;;;11.80;6.70;;;;;;;24.17;49.66;101207.94;5543570;32;33721;-58
2023/09/27 12:06:27;;;;;;;9.35;6.35;;;;;;;24.17;49.70;101192.28;5551359;32;34100;-56
2023/09/27 12:09:31;;;;;;;19.83;6.80;;;;;;;24.19;49.27;101190.00;5566860;32;33776;-57
2023/09/27 12:12:33;;;;;;;17.17;6.43;;;;;;;24.19;48.02;101186.47;5566374;32;33125;-56
2023/09/27 12:15:36;;;;;;;10.75;6.05;;;;;;;24.24;48.34;101187.03;5566235;32;33494;-56
2023/09/27 12:18:39;;;;;;;8.77;5.70;;;;;;;24.20;48.88;101180.62;5561744;32;33379;-56
2023/09/27 12:21:41;;;;;;;10.60;6.35;;;;;;;24.21;47.34;101178.72;5528381;32;34456;-56
2023/09/27 12:24:43;;;;;;;10.82;5.70;;;;;;;24.29;46.10;101177.72;5527762;32;33764;-57
2023/09/27 12:27:46;;;;;;;9.45;6.22;;;;;;;24.25;46.93;101174.91;5530240;32;33793;-59
2023/09/27 12:30:49;;;;;;;9.63;5.65;;;;;;;24.35;46.19;101168.09;5529640;32;34078;-58
2023/09/27 12:33:51;;;;;;;11.15;6.10;;;;;;;24.46;46.60;101171.12;5530225;32;33768;-58
2023/09/27 12:36:54;;;;;;;16.95;6.10;;;;;;;24.43;45.91;101163.59;5531831;32;33693;-57
2023/09/27 12:39:56;;;;;;;13.50;5.97;;;;;;;24.48;46.42;101166.88;5538710;32;33414;-56
2023/09/27 12:42:59;;;;;;;8.65;5.47;;;;;;;24.59;44.77;101159.69;5544559;32;34472;-57
2023/09/27 12:46:02;;;;;;;17.08;7.10;;;;;;;24.68;44.72;101150.50;5546245;32;33621;-56
2023/09/27 12:49:04;;;;;;;18.20;6.70;;;;;;;24.68;44.86;101156.75;5548120;32;34059;-57
2023/09/27 12:52:07;;;;;;;14.60;5.95;;;;;;;24.57;45.96;101150.25;5546186;32;33688;-57
2023/09/27 12:55:09;;;;;;;9.80;5.85;;;;;;;24.49;45.21;101140.25;5537741;32;33858;-57
2023/09/27 12:58:13;;;;;;;26.73;7.10;;;;;;;24.51;45.88;101136.03;5536653;32;33226;-57
2023/09/27 13:01:19;;;;;;;19.20;5.75;;;;;;;24.61;45.22;101131.94;5535165;32;33719;-57
2023/09/27 13:04:21;;;;;;;9.50;5.87;;;;;;;24.58;45.06;101132.66;5546972;32;33720;-56
2023/09/27 13:07:23;;;;;;;25.40;6.50;;;;;;;24.64;44.83;101130.44;5549174;32;33629;-57
2023/09/27 13:10:26;;;;;;;12.13;6.03;;;;;;;24.50;44.81;101123.47;5548773;32;33748;-57
2023/09/27 13:13:31;;;;;;;30.92;6.62;;;;;;;24.54;45.71;101129.03;5549074;32;33300;-57
2023/09/27 13:16:34;;;;;;;;;;;;;;;24.60;45.06;101127.59;5549078;32;33465;-56
2023/09/27 13:19:36;;;;;;;10.13;5.43;;;;;;;24.56;45.22;101113.81;5549138;32;34309;-56
2023/09/27 13:22:39;;;;;;;11.70;5.25;;;;;;;24.57;43.67;101107.19;5548958;32;33388;-57
2023/09/27 13:25:50;;;;;;;14.27;5.90;;;;;;;24.60;45.04;101102.91;5548877;32;34276;-56
2023/09/27 13:28:52;;;;;;;13.32;5.80;;;;;;;24.64;45.58;101106.56;5548834;32;33187;-56
2023/09/27 13:31:55;;;;;;;11.20;5.78;;;;;;;24.72;43.54;101102.00;5549782;32;34383;-56
2023/09/27 13:34:58;;;;;;;17.77;5.40;;;;;;;24.75;44.07;101106.78;5548904;32;33541;-56
2023/09/27 13:38:04;;;;;;;10.43;5.00;;;;;;;24.67;41.42;101105.84;5549162;32;33791;-56
2023/09/27 13:41:06;;;;;;;14.50;5.50;;;;;;;24.63;42.59;101095.94;5534759;32;33155;-57
2023/09/27 13:44:10;;;;;;;11.77;6.05;;;;;;;24.74;42.13;101088.75;5548904;32;33654;-56
2023/09/27 13:47:14;;;;;;;17.62;5.80;;;;;;;24.63;43.26;101090.44;5548651;32;33466;-58
2023/09/27 13:50:16;;;;;;;15.73;5.47;;;;;;;24.58;43.37;101086.84;5548877;32;33258;-59
2023/09/27 13:53:18;;;;;;;8.13;5.78;;;;;;;24.70;43.95;101093.34;5548969;32;33697;-59
2023/09/27 13:56:21;;;;;;;13.02;5.60;;;;;;;24.66;43.33;101089.72;5548689;32;33912;-59
2023/09/27 13:59:23;;;;;;;10.80;5.37;;;;;;;24.67;42.47;101091.31;5548765;32;33829;-59
2023/09/27 14:02:25;;;;;;;21.05;6.00;;;;;;;24.59;41.48;101084.87;5548767;32;33242;-59
2023/09/27 14:05:28;;;;;;;16.90;5.40;;;;;;;24.63;43.16;101084.97;5534906;32;34148;-59
2023/09/27 14:08:31;;;;;;;13.00;5.80;;;;;;;24.60;43.72;101078.25;5548789;32;34358;-59
2023/09/27 14:11:33;;;;;;;21.70;5.72;;;;;;;24.65;43.31;101072.50;5548579;32;34354;-59
2023/09/27 14:14:35;;;;;;;7.53;4.85;;;;;;;24.73;43.48;101068.72;5548460;32;33682;-59
2023/09/27 14:17:38;;;;;;;9.15;5.45;;;;;;;24.67;41.88;101075.69;5549422;32;33721;-59
2023/09/27 14:20:41;;;;;;;14.90;6.00;;;;;;;24.63;43.67;101066.56;5548300;32;34393;-59
2023/09/27 14:23:44;;;;;;;10.85;5.32;;;;;;;24.63;42.43;101071.25;5548757;32;33198;-59
2023/09/27 14:26:47;;;;;;;15.60;5.50;;;;;;;24.56;43.08;101069.16;5548560;32;33399;-59
2023/09/27 14:29:49;;;;;;;10.70;5.80;;;;;;;24.60;41.90;101067.28;5549029;32;34585;-59
2023/09/27 14:32:52;;;;;;;15.07;6.30;;;;;;;24.63;43.04;101065.78;5549358;32;33735;-59
2023/09/27 14:35:55;;;;;;;13.43;5.62;;;;;;;24.64;41.85;101059.94;5549058;32;33637;-59
2023/09/27 14:38:59;;;;;;;17.00;5.70;;;;;;;24.68;43.68;101055.31;5549032;32;33971;-58
2023/09/27 14:42:02;;;;;;;16.55;5.68;;;;;;;24.66;44.47;101049.41;5548730;32;34330;-59
2023/09/27 14:45:06;;;;;;;27.95;6.47;;;;;;;24.54;46.36;101055.81;5549436;32;33693;-59
2023/09/27 14:48:18;;;;;;;18.87;6.57;;;;;;;24.58;44.75;101048.47;5547550;32;34304;-58
2023/09/27 14:51:20;;;;;;;21.95;6.07;;;;;;;24.60;45.20;101050.84;5548048;32;34945;-58
2023/09/27 14:54:23;;;;;;;27.60;6.50;;;;;;;24.51;43.75;101050.25;5549229;32;33802;-58
2023/09/27 14:57:27;;;;;;;14.48;6.18;;;;;;;24.57;43.78;101046.09;5549065;32;34438;-58
2023/09/27 15:00:31;;;;;;;15.43;5.90;;;;;;;24.60;44.37;101040.69;5548992;32;33718;-58
2023/09/27 15:03:33;;;;;;;14.40;5.75;;;;;;;24.62;44.25;101048.53;5549269;32;33927;-58
2023/09/27 15:06:36;;;;;;;10.77;4.85;;;;;;;24.52;43.47;101046.38;5549235;32;34317;-58
2023/09/27 15:09:38;;;;;;;14.73;5.37;;;;;;;24.55;42.08;101042.91;5549300;32;33784;-58
2023/09/27 15:12:41;;;;;;;9.98;5.07;;;;;;;24.53;42.73;101050.69;5548986;32;33615;-58
2023/09/27 15:15:44;;;;;;;16.15;5.72;;;;;;;24.49;43.41;101055.28;5548991;32;34024;-58
2023/09/27 15:18:47;;;;;;;12.23;5.53;;;;;;;24.57;42.53;101048.84;5549085;32;33719;-58
2023/09/27 15:21:49;;;;;;;9.05;5.62;;;;;;;24.50;42.67;101049.47;5549037;32;33464;-57
2023/09/27 15:24:52;;;;;;;9.20;5.07;;;;;;;24.46;43.53;101045.84;5549186;32;33800;-58
2023/09/27 15:27:55;;;;;;;10.38;5.68;;;;;;;24.43;42.67;101057.50;5548748;32;34061;-58
2023/09/27 15:30:58;;;;;;;11.23;5.87;;;;;;;24.35;43.29;101042.84;5549124;32;33622;-58
2023/09/27 15:34:00;;;;;;;12.98;5.65;;;;;;;24.36;43.67;101049.09;5548896;32;33725;-58
2023/09/27 15:37:03;;;;;;;9.20;4.95;;;;;;;24.50;41.91;101045.91;5548462;32;34355;-58
2023/09/27 15:40:06;;;;;;;14.45;5.10;;;;;;;24.44;43.52;101044.63;5548599;32;33772;-58
2023/09/27 15:43:11;;;;;;;13.93;5.43;;;;;;;24.41;42.39;101042.59;5549058;32;34270;-57
2023/09/27 15:46:15;;;;;;;10.32;5.12;;;;;;;24.26;43.08;101044.97;5548777;32;34297;-58
